< Typhoon 202223 2022 Season
Typhoon 202224 (YAMANEKO)
General InformationTrack Information on Google MapsDetailed Wind InformationForecast History on Google MapsAccess Analytics MapList of All Images || NewsDisaster Info.JMA Disaster Info. XMLWeblogTrackbackTyphoon FrontTwiphoonTyphoon Now!Typhoon ImaginationResourceGoogle EarthGE AnimationAtom FeedGeoJSON
Detalied Best Track (Time Zone = UTC)
Year Month Day Hour Lat. Long. Pressure (hPa) Wind (kt) Class Image Chart
2022 11 11 18 20.8 168.4 1010 30 2 Image Chart
2022 11 11 21 21.0 167.3 1010 30 2 Image Chart
2022 11 12 00 20.8 166.3 1010 30 2 Image Chart
2022 11 12 03 20.5 165.7 1008 30 2 Image Chart
2022 11 12 06 20.4 165.5 1008 30 2 Image Chart
2022 11 12 09 20.8 165.5 1008 30 2 Image Chart
2022 11 12 12 20.9 165.4 1006 35 3 Image Chart
2022 11 12 15 21.1 165.3 1004 35 3 Image Chart
2022 11 12 18 21.6 165.3 1004 35 3 Image Chart
2022 11 12 21 21.8 165.9 1004 35 3 Image Chart
2022 11 13 00 21.8 166.1 1004 35 3 Image Chart
2022 11 13 03 21.9 165.9 1004 35 3 Image Chart
2022 11 13 06 22.2 166.0 1004 35 3 Image Chart
2022 11 13 09 22.3 165.8 1004 35 3 Image Chart
2022 11 13 12 22.4 165.8 1004 35 3 Image Chart
2022 11 13 15 22.4 165.8 1004 35 3 Image Chart
2022 11 13 18 22.6 165.9 1004 35 3 Image Chart
2022 11 13 21 23.2 165.9 1004 35 3 Image Chart
2022 11 14 00 23.8 165.6 1004 35 3 Image Chart
2022 11 14 03 24.2 165.6 1004 35 3 Image Chart
2022 11 14 06 25.0 166.0 1006 0 2 Image Chart
Japan Meteorological Agency Best Track Data | Correction Date : 2022-11-14
< Typhoon 202223 2022 Season

Help